地図

経路データ

SID SEASON NUMBER BASIN SUBBASIN NAME ISO_TIME NATURE LAT LON WMO_WIND WMO_PRES WMO_AGENCY TRACK_TYPE DIST2LAND LANDFALL IFLAG USA_AGENCY USA_ATCF_ID USA_LAT USA_LON USA_RECORD USA_STATUS USA_WIND USA_PRES USA_SSHS USA_R34_NE USA_R34_SE USA_R34_SW USA_R34_NW USA_R50_NE USA_R50_SE USA_R50_SW USA_R50_NW USA_R64_NE USA_R64_SE USA_R64_SW USA_R64_NW USA_POCI USA_ROCI USA_RMW USA_EYE TOKYO_LAT TOKYO_LON TOKYO_GRADE TOKYO_WIND TOKYO_PRES TOKYO_R50_DIR TOKYO_R50_LONG TOKYO_R50_SHORT TOKYO_R30_DIR TOKYO_R30_LONG TOKYO_R30_SHORT TOKYO_LAND CMA_LAT CMA_LON CMA_CAT CMA_WIND CMA_PRES HKO_LAT HKO_LON HKO_CAT HKO_WIND HKO_PRES NEWDELHI_LAT NEWDELHI_LON NEWDELHI_GRADE NEWDELHI_WIND NEWDELHI_PRES NEWDELHI_CI NEWDELHI_DP NEWDELHI_POCI REUNION_LAT REUNION_LON REUNION_TYPE REUNION_WIND REUNION_PRES REUNION_TNUM REUNION_CI REUNION_RMW REUNION_R34_NE REUNION_R34_SE REUNION_R34_SW REUNION_R34_NW REUNION_R50_NE REUNION_R50_SE REUNION_R50_SW REUNION_R50_NW REUNION_R64_NE REUNION_R64_SE REUNION_R64_SW REUNION_R64_NW BOM_LAT BOM_LON BOM_TYPE BOM_WIND BOM_PRES BOM_TNUM BOM_CI BOM_RMW BOM_R34_NE BOM_R34_SE BOM_R34_SW BOM_R34_NW BOM_R50_NE BOM_R50_SE BOM_R50_SW BOM_R50_NW BOM_R64_NE BOM_R64_SE BOM_R64_SW BOM_R64_NW BOM_ROCI BOM_POCI BOM_EYE BOM_POS_METHOD BOM_PRES_METHOD NADI_LAT NADI_LON NADI_CAT NADI_WIND NADI_PRES WELLINGTON_LAT WELLINGTON_LON WELLINGTON_WIND WELLINGTON_PRES DS824_LAT DS824_LON DS824_STAGE DS824_WIND DS824_PRES TD9636_LAT TD9636_LON TD9636_STAGE TD9636_WIND TD9636_PRES TD9635_LAT TD9635_LON TD9635_WIND TD9635_PRES TD9635_ROCI NEUMANN_LAT NEUMANN_LON NEUMANN_CLASS NEUMANN_WIND NEUMANN_PRES MLC_LAT MLC_LON MLC_CLASS MLC_WIND MLC_PRES USA_GUST BOM_GUST BOM_GUST_PER REUNION_GUST REUNION_GUST_PER USA_SEAHGT USA_SEARAD_NE USA_SEARAD_SE USA_SEARAD_SW USA_SEARAD_NW STORM_SPEED STORM_DIR
1852247N14309 1852 6 NA NA NOT_NAMED 1852-09-03 06:00:00 TS 14.0000 -51.2000 main 964 961 _____________O -1 14.0000 -51.2000 TD 30 14 290
1852247N14309 1852 6 NA NA NOT_NAMED 1852-09-03 09:00:00 TS 14.2504 -51.8997 main 973 965 _____________P -1 14.2504 -51.8997 TD 30 14 290
1852247N14309 1852 6 NA NA NOT_NAMED 1852-09-03 12:00:00 TS 14.5000 -52.6000 main 979 948 _____________O -1 14.5000 -52.6000 TD 30 14 290
1852247N14309 1852 6 NA NA NOT_NAMED 1852-09-03 15:00:00 TS 14.7498 -53.3002 main 948 898 _____________P -1 14.7498 -53.3002 TD 32 14 290
1852247N14309 1852 6 NA NA NOT_NAMED 1852-09-03 18:00:00 TS 15.0000 -54.0000 main 898 848 _____________O -1 15.0000 -54.0000 TS 35 14 290
1852247N14309 1852 6 NA NA NOT_NAMED 1852-09-03 21:00:00 TS 15.2497 -54.6927 main 848 810 _____________P -1 15.2497 -54.6927 TS 35 14 290
1852247N14309 1852 6 NA NA NOT_NAMED 1852-09-04 00:00:00 TS 15.5000 -55.4000 main 810 771 _____________O -1 15.5000 -55.4000 TS 35 15 290
1852247N14309 1852 6 NA NA NOT_NAMED 1852-09-04 03:00:00 TS 15.7498 -56.1427 main 771 740 _____________P -1 15.7498 -56.1427 TS 37 15 289
1852247N14309 1852 6 NA NA NOT_NAMED 1852-09-04 06:00:00 TS 16.0000 -56.9000 main 740 717 _____________O -1 16.0000 -56.9000 TS 40 15 289
1852247N14309 1852 6 NA NA NOT_NAMED 1852-09-04 09:00:00 TS 16.2497 -57.6502 main 711 706 _____________P -1 16.2497 -57.6502 TS 40 15 289
1852247N14309 1852 6 NA NA NOT_NAMED 1852-09-04 12:00:00 TS 16.5000 -58.4000 main 707 702 _____________O -1 16.5000 -58.4000 TS 40 15 289
1852247N14309 1852 6 NA NA NOT_NAMED 1852-09-04 15:00:00 TS 16.7497 -59.1502 main 699 618 _____________P -1 16.7497 -59.1502 TS 42 15 289
1852247N14309 1852 6 NA NA NOT_NAMED 1852-09-04 18:00:00 TS 17.0000 -59.9000 main 618 541 _____________O -1 17.0000 -59.9000 TS 45 15 289
1852247N14309 1852 6 NA NA NOT_NAMED 1852-09-04 21:00:00 TS 17.2497 -60.6502 main 531 451 _____________P -1 17.2497 -60.6502 TS 45 15 289
1852247N14309 1852 6 NA CS NOT_NAMED 1852-09-05 00:00:00 TS 17.5000 -61.4000 main 451 374 _____________O -1 17.5000 -61.4000 TS 45 15 289
1852247N14309 1852 6 NA CS NOT_NAMED 1852-09-05 03:00:00 TS 17.7497 -62.1502 main 364 286 _____________P -1 17.7497 -62.1502 TS 45 15 289
1852247N14309 1852 6 NA CS NOT_NAMED 1852-09-05 06:00:00 TS 18.0000 -62.9000 main 286 211 _____________O -1 18.0000 -62.9000 TS 45 15 289
1852247N14309 1852 6 NA CS NOT_NAMED 1852-09-05 09:00:00 TS 18.2497 -63.6502 main 200 127 _____________P -1 18.2497 -63.6502 TS 45 15 289
1852247N14309 1852 6 NA CS NOT_NAMED 1852-09-05 12:00:00 TS 18.5000 -64.4000 main 127 62 _____________O -1 18.5000 -64.4000 TS 45 15 289
1852247N14309 1852 6 NA CS NOT_NAMED 1852-09-05 15:00:00 TS 18.7497 -65.1502 main 53 49 _____________P -1 18.7497 -65.1502 TS 47 15 289
1852247N14309 1852 6 NA NA NOT_NAMED 1852-09-05 18:00:00 TS 19.0000 -65.9000 main 67 67 _____________O -1 19.0000 -65.9000 TS 50 15 290
1852247N14309 1852 6 NA NA NOT_NAMED 1852-09-05 21:00:00 TS 19.2572 -66.6501 main 100 100 _____________P -1 19.2572 -66.6501 TS 52 15 289
1852247N14309 1852 6 NA NA NOT_NAMED 1852-09-06 00:00:00 TS 19.5000 -67.4000 main 123 113 _____________O -1 19.5000 -67.4000 TS 55 15 287
1852247N14309 1852 6 NA NA NOT_NAMED 1852-09-06 03:00:00 TS 19.6997 -68.1504 main 109 79 _____________P -1 19.6997 -68.1504 TS 57 15 286
1852247N14309 1852 6 NA NA NOT_NAMED 1852-09-06 06:00:00 TS 19.9000 -68.9000 main 79 69 _____________O -1 19.9000 -68.9000 TS 60 15 287
1852247N14309 1852 6 NA NA NOT_NAMED 1852-09-06 09:00:00 TS 20.1422 -69.6501 main 64 64 _____________P -1 20.1422 -69.6501 TS 60 15 290
1852247N14309 1852 6 NA NA NOT_NAMED 1852-09-06 12:00:00 TS 20.4000 -70.4000 main 70 67 _____________O -1 20.4000 -70.4000 TS 60 15 290
1852247N14309 1852 6 NA NA NOT_NAMED 1852-09-06 15:00:00 TS 20.6497 -71.1502 main 89 89 _____________P -1 20.6497 -71.1502 TS 62 15 290
1852247N14309 1852 6 NA NA NOT_NAMED 1852-09-06 18:00:00 TS 20.9000 -71.9000 main 118 42 _____________O -1 20.9000 -71.9000 HU 65 15 290
1852247N14309 1852 6 NA NA NOT_NAMED 1852-09-06 21:00:00 TS 21.1574 -72.6725 main 31 10 _____________P -1 21.1574 -72.6725 HU 65 15 290
1852247N14309 1852 6 NA NA NOT_NAMED 1852-09-07 00:00:00 TS 21.4000 -73.4000 main 30 30 _____________O -1 21.4000 -73.4000 HU 65 13 290
1852247N14309 1852 6 NA NA NOT_NAMED 1852-09-07 03:00:00 TS 21.6145 -74.0228 main 63 63 _____________P -1 21.6145 -74.0228 HU 65 12 290
1852247N14309 1852 6 NA NA NOT_NAMED 1852-09-07 06:00:00 TS 21.8000 -74.6000 main 121 108 _____________O -1 21.8000 -74.6000 HU 65 12 287
1852247N14309 1852 6 NA NA NOT_NAMED 1852-09-07 09:00:00 TS 21.9499 -75.2078 main 108 108 _____________P -1 21.9499 -75.2078 HU 65 12 285
1852247N14309 1852 6 NA NA NOT_NAMED 1852-09-07 12:00:00 TS 22.1000 -75.8000 main 108 105 _____________O -1 22.1000 -75.8000 HU 65 11 288
1852247N14309 1852 6 NA NA NOT_NAMED 1852-09-07 15:00:00 TS 22.2997 -76.3500 main 98 88 _____________P -1 22.2997 -76.3500 HU 65 11 291
1852247N14309 1852 6 NA NA NOT_NAMED 1852-09-07 18:00:00 TS 22.5000 -76.9000 main 91 84 _____________O -1 22.5000 -76.9000 HU 65 11 288
1852247N14309 1852 6 NA NA NOT_NAMED 1852-09-07 21:00:00 TS 22.6499 -77.4928 main 84 63 _____________P -1 22.6499 -77.4928 HU 65 11 285
1852247N14309 1852 6 NA NA NOT_NAMED 1852-09-08 00:00:00 TS 22.8000 -78.1000 main 63 59 _____________O -1 22.8000 -78.1000 HU 65 12 287
1852247N14309 1852 6 NA NA NOT_NAMED 1852-09-08 03:00:00 TS 22.9998 -78.7000 main 78 63 _____________P -1 22.9998 -78.7000 HU 67 12 290
1852247N14309 1852 6 NA NA NOT_NAMED 1852-09-08 06:00:00 TS 23.2000 -79.3000 main 63 45 _____________O -1 23.2000 -79.3000 HU 70 12 288
1852247N14309 1852 6 NA NA NOT_NAMED 1852-09-08 09:00:00 TS 23.3499 -79.9078 main 45 45 _____________P -1 23.3499 -79.9078 HU 72 11 285
1852247N14309 1852 6 NA NA NOT_NAMED 1852-09-08 12:00:00 TS 23.5000 -80.5000 main 55 55 _____________O -1 23.5000 -80.5000 HU 75 11 288
1852247N14309 1852 6 NA NA NOT_NAMED 1852-09-08 15:00:00 TS 23.6846 -81.0502 main 70 67 _____________P -1 23.6846 -81.0502 HU 77 11 292
1852247N14309 1852 6 NA NA NOT_NAMED 1852-09-08 18:00:00 TS 23.9000 -81.6000 main 89 89 _____________O -1 23.9000 -81.6000 HU 80 11 293
1852247N14309 1852 6 NA NA NOT_NAMED 1852-09-08 21:00:00 TS 24.1348 -82.1853 main 111 111 _____________P -1 24.1348 -82.1853 HU 82 36 289
1852247N14309 1852 6 NA GM NOT_NAMED 1852-09-09 00:00:00 TS 25.0667 -85.3333 70 hurdat_atl main 298 298 O____________O hurdat_atl AL031852 26.4000 -90.4000 HU 70 1 24.4000 -82.8000 HU 85 44 289
1852247N14309 1852 6 NA GM NOT_NAMED 1852-09-09 03:00:00 TS 25.5700 -86.7189 main 424 384 P____________P AL031852 26.4477 -90.0025 HU 70 1 24.6922 -83.4352 HU 87 20 294
1852247N14309 1852 6 NA GM NOT_NAMED 1852-09-09 06:00:00 TS 25.9000 -87.4000 70 hurdat_atl main 384 351 O____________O hurdat_atl AL031852 26.5000 -89.6000 HU 70 1 25.0000 -84.1000 HU 90 11 301
1852247N14309 1852 6 NA GM NOT_NAMED 1852-09-09 09:00:00 TS 26.1385 -87.7532 main 348 331 P____________P AL031852 26.5574 -89.1926 HU 70 1 25.3006 -84.8746 HU 92 5 324
1852247N14309 1852 6 NA GM NOT_NAMED 1852-09-09 12:00:00 TS 26.2667 -87.7000 70 hurdat_atl main 331 325 O____________O hurdat_atl AL031852 26.6000 -88.8000 HU 70 1 25.6000 -85.5000 HU 95 3 40
1852247N14309 1852 6 NA GM NOT_NAMED 1852-09-09 15:00:00 TS 26.3614 -87.5442 main 330 325 P____________P AL031852 26.5924 -88.4423 HU 70 1 25.8994 -85.7481 HU 97 4 59
1852247N14309 1852 6 NA GM NOT_NAMED 1852-09-09 18:00:00 TS 26.4667 -87.3333 70 hurdat_atl main 330 326 O____________O hurdat_atl AL031852 26.6000 -88.1000 HU 70 1 26.2000 -85.8000 MH 100 5 54
1852247N14309 1852 6 NA GM NOT_NAMED 1852-09-09 21:00:00 TS 26.6332 -87.1268 main 332 320 P____________P AL031852 26.6924 -87.7576 HU 70 1 26.5150 -85.8651 MH 100 5 49
1852247N14309 1852 6 NA GM NOT_NAMED 1852-09-10 00:00:00 TS 26.8000 -86.9000 70 hurdat_atl main 327 325 O____________O hurdat_atl AL031852 26.8000 -87.4000 HU 70 1 26.8000 -85.9000 MH 100 5 58
1852247N14309 1852 6 NA GM NOT_NAMED 1852-09-10 03:00:00 TS 26.9076 -86.6424 main 333 316 P____________P AL031852 26.8501 -86.9849 HU 70 1 27.0225 -85.9575 MH 100 5 66
1852247N14309 1852 6 NA GM NOT_NAMED 1852-09-10 06:00:00 TS 27.0000 -86.4000 70 hurdat_atl main 316 300 O____________O hurdat_atl AL031852 26.9000 -86.6000 HU 70 1 27.2000 -86.0000 MH 100 4 59
1852247N14309 1852 6 NA GM NOT_NAMED 1852-09-10 09:00:00 TS 27.1215 -86.2358 main 300 287 P____________P AL031852 26.9923 -86.3275 HU 70 1 27.3799 -86.0525 MH 100 4 52
1852247N14309 1852 6 NA GM NOT_NAMED 1852-09-10 12:00:00 TS 27.2333 -86.0667 70 hurdat_atl main 287 270 O____________O hurdat_atl AL031852 27.1000 -86.1000 HU 70 1 27.5000 -86.0000 MH 100 965 4 64
1852247N14309 1852 6 NA GM NOT_NAMED 1852-09-10 15:00:00 TS 27.3050 -85.8149 main 270 256 P____________P AL031852 27.2000 -85.8500 HU 70 1 27.5151 -85.7449 MH 100 5 74
1852247N14309 1852 6 NA GM NOT_NAMED 1852-09-10 18:00:00 TS 27.3667 -85.5333 70 hurdat_atl main 256 242 O____________O hurdat_atl AL031852 27.3000 -85.6000 HU 70 1 27.5000 -85.4000 MH 100 5 73
1852247N14309 1852 6 NA GM NOT_NAMED 1852-09-10 21:00:00 TS 27.4500 -85.2642 main 242 211 P____________P AL031852 27.4000 -85.3500 HU 70 1 27.5500 -85.0926 MH 97 5 71
1852247N14309 1852 6 NA GM NOT_NAMED 1852-09-11 00:00:00 TS 27.5333 -85.0000 70 hurdat_atl main 211 189 O____________O hurdat_atl AL031852 27.5000 -85.1000 HU 70 1 27.6000 -84.8000 HU 95 5 71
1852247N14309 1852 6 NA GM NOT_NAMED 1852-09-11 03:00:00 TS 27.6049 -84.7525 main 189 158 P____________P AL031852 27.6074 -84.8575 HU 70 1 27.5999 -84.5424 HU 92 5 73
1852247N14309 1852 6 NA GM NOT_NAMED 1852-09-11 06:00:00 TS 27.6667 -84.5000 70 hurdat_atl main 158 129 O____________O hurdat_atl AL031852 27.7000 -84.6000 HU 70 1 27.6000 -84.3000 HU 90 5 76
1852247N14309 1852 6 NA GM NOT_NAMED 1852-09-11 09:00:00 TS 27.7216 -84.2216 main 129 98 P____________P AL031852 27.7575 -84.3074 HU 70 1 27.6500 -84.0501 HU 87 5 79
1852247N14309 1852 6 NA GM NOT_NAMED 1852-09-11 12:00:00 TS 27.7667 -83.9333 70 hurdat_atl main 98 79 O____________O hurdat_atl AL031852 27.8000 -84.0000 HU 70 1 27.7000 -83.8000 HU 85 5 81
1852247N14309 1852 6 NA GM NOT_NAMED 1852-09-11 15:00:00 TS 27.7999 -83.6500 main 69 50 P____________P AL031852 27.8499 -83.7000 HU 70 1 27.7000 -83.5499 HU 82 5 82
1852247N14309 1852 6 NA GM NOT_NAMED 1852-09-11 18:00:00 TS 27.8333 -83.3667 70 hurdat_atl main 50 19 O____________O hurdat_atl AL031852 27.9000 -83.4000 HU 70 1 27.7000 -83.3000 HU 80 5 81
1852247N14309 1852 6 NA GM NOT_NAMED 1852-09-11 21:00:00 TS 27.8808 -83.0833 main 19 0 P____________P AL031852 27.9499 -83.1000 HU 70 1 27.7425 -83.0500 HU 77 5 79
1852247N14309 1852 6 NA NA NOT_NAMED 1852-09-12 00:00:00 TS 27.9333 -82.8000 70 hurdat_atl main 0 0 O____________O hurdat_atl AL031852 28.0000 -82.8000 L HU 70 1 27.8000 -82.8000 HU 75 5 78
1852247N14309 1852 6 NA GM NOT_NAMED 1852-09-12 03:00:00 TS 27.9832 -82.5216 main 0 0 P____________P AL031852 28.0499 -82.5075 HU 65 1 27.8500 -82.5500 HU 67 5 79
1852247N14309 1852 6 NA NA NOT_NAMED 1852-09-12 06:00:00 TS 28.0333 -82.2333 60 hurdat_atl main 0 0 O____________O hurdat_atl AL031852 28.1000 -82.2000 TS 60 0 27.9000 -82.3000 TS 60 5 80
1852247N14309 1852 6 NA NA NOT_NAMED 1852-09-12 09:00:00 TS 28.0681 -81.9489 main 0 0 P____________P AL031852 28.1348 -81.8797 TS 55 0 27.9347 -82.0872 TS 55 6 80
1852247N14309 1852 6 NA NA NOT_NAMED 1852-09-12 12:00:00 TS 28.1333 -81.6000 50 hurdat_atl main 0 0 O____________O hurdat_atl AL031852 28.2000 -81.5000 TS 50 0 28.0000 -81.8000 TS 50 7 77
1852247N14309 1852 6 NA NA NOT_NAMED 1852-09-12 15:00:00 TS 28.2174 -81.1910 main 0 0 P____________P AL031852 28.3046 -81.0593 TS 50 0 28.0431 -81.4542 TS 50 9 71
1852247N14309 1852 6 NA NA NOT_NAMED 1852-09-12 18:00:00 TS 28.4333 -80.6000 50 hurdat_atl main 0 0 O____________O hurdat_atl AL031852 28.5000 -80.5000 TS 50 0 28.3000 -80.8000 TS 50 14 64
1852247N14309 1852 6 NA NA NOT_NAMED 1852-09-12 21:00:00 TS 28.8420 -79.7518 main 76 76 P____________P AL031852 28.7820 -79.8238 TS 55 0 28.9620 -79.6076 TS 55 19 59
1852247N14309 1852 6 NA NA NOT_NAMED 1852-09-13 00:00:00 TS 29.4000 -78.7333 60 hurdat_atl main 201 201 O____________O hurdat_atl AL031852 29.2000 -79.0000 TS 60 0 29.8000 -78.2000 TS 60 21 57
1852247N14309 1852 6 NA NA NOT_NAMED 1852-09-13 03:00:00 TS 29.9985 -77.7243 main 318 318 P____________P AL031852 29.7317 -78.0734 TS 65 1 30.5322 -77.0260 TS 62 23 55
1852247N14309 1852 6 NA NA NOT_NAMED 1852-09-13 06:00:00 TS 30.7000 -76.6000 70 hurdat_atl main 368 359 O____________O hurdat_atl AL031852 30.4000 -77.0000 HU 70 1 31.3000 -75.8000 HU 65 25 54
1852247N14309 1852 6 NA NA NOT_NAMED 1852-09-13 09:00:00 TS 31.4830 -75.3374 main 367 349 P____________P AL031852 31.1388 -75.8222 HU 70 1 32.1714 -74.3678 HU 65 29 54
1852247N14309 1852 6 NA NA NOT_NAMED 1852-09-13 12:00:00 TS 32.4000 -73.8200 70 hurdat_atl main 357 355 O____________O hurdat_atl AL031852 32.0000 -74.5000 HU 70 1 33.0000 -72.8000 HU 65 33 56
1852247N14309 1852 6 NA NA NOT_NAMED 1852-09-13 15:00:00 TS 33.3118 -72.1260 main 417 416 P____________P AL031852 32.9740 -73.0457 HU 70 1 33.6496 -71.2063 HU 65 35 60
1852247N14309 1852 6 NA NA NOT_NAMED 1852-09-13 18:00:00 TS 34.1333 -70.1667 70 hurdat_atl main 517 517 O____________O hurdat_atl AL031852 34.0000 -71.5000 HU 70 1 34.2000 -69.5000 HU 65 39 71
1852247N14309 1852 6 NA NA NOT_NAMED 1852-09-13 21:00:00 TS 34.6001 -67.6553 main 719 719 _____________P AL031852 HU -1 34.6001 -67.6553 HU 65 38 74
1852247N14309 1852 6 NA NA NOT_NAMED 1852-09-14 00:00:00 TS 35.2000 -65.7000 main 814 789 _____________O -1 35.2000 -65.7000 HU 65 38 60
1852247N14309 1852 6 NA NA NOT_NAMED 1852-09-14 03:00:00 TS 36.5228 -63.6485 main 792 716 _____________P -1 36.5228 -63.6485 HU 65 42 53
1852247N14309 1852 6 NA NA NOT_NAMED 1852-09-14 06:00:00 TS 37.7000 -61.5000 main 720 720 _____________O -1 37.7000 -61.5000 HU 65 38 68
1852247N14309 1852 6 NA NA NOT_NAMED 1852-09-14 09:00:00 TS 37.9568 -59.2538 main 792 792 _____________P -1 37.9568 -59.2538 HU 65 33 90
1852247N14309 1852 6 NA NA NOT_NAMED 1852-09-14 12:00:00 TS 37.7000 -57.3000 main 891 891 _____________O -1 37.7000 -57.3000 HU 65 27 104
1852247N14309 1852 6 NA NA NOT_NAMED 1852-09-14 15:00:00 TS 37.3186 -55.9646 main 975 975 _____________P -1 37.3186 -55.9646 HU 62 21 115
1852247N14309 1852 6 NA NA NOT_NAMED 1852-09-14 18:00:00 TS 36.8000 -54.9000 main 1068 1068 _____________O -1 36.8000 -54.9000 TS 60 20 121
1852247N14309 1852 6 NA NA NOT_NAMED 1852-09-14 21:00:00 TS 36.3007 -53.8459 main 1145 1145 _____________P -1 36.3007 -53.8459 TS 60 22 117
1852247N14309 1852 6 NA NA NOT_NAMED 1852-09-15 00:00:00 TS 35.8000 -52.5000 main 1202 1202 _____________O -1 35.8000 -52.5000 TS 60 29 110
1852247N14309 1852 6 NA NA NOT_NAMED 1852-09-15 03:00:00 TS 35.3029 -50.4842 main 1277 1277 _____________P -1 35.3029 -50.4842 TS 60 36 106
1852247N14309 1852 6 NA NA NOT_NAMED 1852-09-15 06:00:00 TS 34.8000 -48.2000 main 1377 1377 _____________O -1 34.8000 -48.2000 TS 60 38 107
1852247N14309 1852 6 NA NA NOT_NAMED 1852-09-15 09:00:00 TS 34.1935 -46.0427 main 1506 1506 _____________P -1 34.1935 -46.0427 TS 60 36 106
1852247N14309 1852 6 NA NA NOT_NAMED 1852-09-15 12:00:00 TS 33.8000 -44.0000 main 1620 1620 _____________O -1 33.8000 -44.0000 TS 60 32 95
1852247N14309 1852 6 NA NA NOT_NAMED 1852-09-15 15:00:00 TS 33.8905 -42.1615 main 1688 1688 _____________P -1 33.8905 -42.1615 TS 60 30 82
1852247N14309 1852 6 NA NA NOT_NAMED 1852-09-15 18:00:00 TS 34.2000 -40.4000 main 1747 1747 _____________O -1 34.2000 -40.4000 TS 60 30 80
1852247N14309 1852 6 NA NA NOT_NAMED 1852-09-15 21:00:00 TS 34.3974 -38.5992 main 1826 1826 _____________P -1 34.3974 -38.5992 TS 60 30 82
1852247N14309 1852 6 NA NA NOT_NAMED 1852-09-16 00:00:00 TS 34.6000 -36.8000 main 1913 1873 _____________O -1 34.6000 -36.8000 TS 60 30 82
1852247N14309 1852 6 NA NA NOT_NAMED 1852-09-16 03:00:00 TS 34.7974 -34.9991 main 1864 1726 _____________P -1 34.7974 -34.9991 TS 60 30 82
1852247N14309 1852 6 NA NA NOT_NAMED 1852-09-16 06:00:00 ET 35.0000 -33.2000 main 1717 1584 _____________O -1 35.0000 -33.2000 EX 60 30 82
1852247N14309 1852 6 NA NA NOT_NAMED 1852-09-16 09:00:00 ET 35.1973 -31.3991 main 1576 1449 _____________P -1 35.1973 -31.3991 EX 60 30 82
1852247N14309 1852 6 NA NA NOT_NAMED 1852-09-16 12:00:00 ET 35.4000 -29.6000 main 1441 1323 _____________O -1 35.4000 -29.6000 EX 60 981 30 82
1852247N14309 1852 6 NA NA NOT_NAMED 1852-09-16 15:00:00 ET 35.6053 -27.8020 main 1316 1209 _____________P -1 35.6053 -27.8020 EX 60 29 82
1852247N14309 1852 6 NA NA NOT_NAMED 1852-09-16 18:00:00 ET 35.8000 -26.0000 main 1202 _____________O -1 35.8000 -26.0000 EX 60 29 82

IBTrACS Databaseについて

本データベースは、米国NOAAが公開する1842年以降の世界の熱帯低気圧のベストトラックデータアーカイブInternational Best Track Archive for Climate Stewardship (IBTrACS)を、ウェブで閲覧しやすい形式に変換したものです。

最終更新日:2021-12-06